createdAt,value
2016-12-29T00:00:13.722Z,745.12
2016-12-29T00:01:13.697Z,745.09
2016-12-29T00:02:13.680Z,745.07
2016-12-29T00:03:13.656Z,745.07
2016-12-29T00:04:13.635Z,745.06
2016-12-29T00:05:13.617Z,745.07
2016-12-29T00:06:13.593Z,745.11
2016-12-29T00:07:13.572Z,744.8
2016-12-29T00:08:13.554Z,745.01
2016-12-29T00:09:13.531Z,745.09
2016-12-29T00:10:13.509Z,744.99
2016-12-29T00:11:13.492Z,745.07
2016-12-29T00:12:13.471Z,745.1
2016-12-29T00:13:13.446Z,744.96
2016-12-29T00:14:13.429Z,745.03
2016-12-29T00:15:13.404Z,745.06
2016-12-29T00:16:13.387Z,745.07
2016-12-29T00:17:13.362Z,745.01
2016-12-29T00:18:13.345Z,744.94
2016-12-29T00:19:13.321Z,744.88
2016-12-29T00:20:13.301Z,744.96
2016-12-29T00:21:13.283Z,745.04
2016-12-29T00:22:13.262Z,745.02
2016-12-29T00:23:13.238Z,744.93
2016-12-29T00:24:13.217Z,744.94
2016-12-29T00:25:13.199Z,744.92
2016-12-29T00:26:13.178Z,744.88
2016-12-29T00:27:13.155Z,745.02
2016-12-29T00:28:13.136Z,744.72
2016-12-29T00:29:13.115Z,745.05
2016-12-29T00:30:13.091Z,744.74
2016-12-29T00:31:13.073Z,744.97
2016-12-29T00:32:13.048Z,744.94
2016-12-29T00:33:13.031Z,744.99
2016-12-29T00:34:13.007Z,745.09
2016-12-29T00:35:12.988Z,744.48
2016-12-29T00:36:12.964Z,744.81
2016-12-29T00:37:12.945Z,744.83
2016-12-29T00:38:12.923Z,744.91
2016-12-29T00:39:12.904Z,744.84
2016-12-29T00:40:12.883Z,744.99
2016-12-29T00:41:12.860Z,744.74
2016-12-29T00:42:12.842Z,744.91
2016-12-29T00:43:12.817Z,744.9
2016-12-29T00:44:12.800Z,744.78
2016-12-29T00:45:12.779Z,744.87
2016-12-29T00:46:12.755Z,744.89
2016-12-29T00:47:12.733Z,744.93
2016-12-29T00:48:12.712Z,744.81
2016-12-29T00:49:12.698Z,744.72
2016-12-29T00:50:12.670Z,744.84
2016-12-29T00:51:12.650Z,744.8
2016-12-29T00:52:12.632Z,744.88
2016-12-29T00:53:12.611Z,744.89
2016-12-29T00:54:12.586Z,744.95
2016-12-29T00:55:12.566Z,744.62
2016-12-29T00:56:12.552Z,744.77
2016-12-29T00:57:12.527Z,744.84
2016-12-29T00:58:12.506Z,744.91
2016-12-29T00:59:12.482Z,744.75
2016-12-29T01:00:12.465Z,744.9
2016-12-29T01:01:12.440Z,744.8
2016-12-29T01:02:12.419Z,744.65
2016-12-29T01:03:12.402Z,744.88
2016-12-29T01:04:12.377Z,744.94
2016-12-29T01:05:12.359Z,744.67
2016-12-29T01:06:12.339Z,744.8
2016-12-29T01:07:12.315Z,744.82
2016-12-29T01:08:12.297Z,744.8
2016-12-29T01:09:12.272Z,744.54
2016-12-29T01:10:12.255Z,744.78
2016-12-29T01:11:12.234Z,744.85
2016-12-29T01:12:12.213Z,744.74
2016-12-29T01:13:12.193Z,744.73
2016-12-29T01:14:12.171Z,744.73
2016-12-29T01:15:12.149Z,744.83
2016-12-29T01:16:12.125Z,744.67
2016-12-29T01:17:12.104Z,744.85
2016-12-29T01:18:12.086Z,744.89
2016-12-29T01:19:12.065Z,744.7
2016-12-29T01:20:12.044Z,744.68
2016-12-29T01:21:12.023Z,744.76
2016-12-29T01:22:12.002Z,744.73
2016-12-29T01:23:11.977Z,744.75
2016-12-29T01:24:11.960Z,744.76
2016-12-29T01:25:11.936Z,744.76
2016-12-29T01:26:11.918Z,744.73
2016-12-29T01:27:11.894Z,744.77
2016-12-29T01:28:11.876Z,744.64
2016-12-29T01:29:11.856Z,744.67
2016-12-29T01:30:11.835Z,744.7
2016-12-29T01:31:11.810Z,744.95
2016-12-29T01:32:11.793Z,744.5
2016-12-29T01:33:11.772Z,744.72
2016-12-29T01:34:11.770Z,744.63
2016-12-29T01:35:11.731Z,744.77
2016-12-29T01:36:11.708Z,744.54
2016-12-29T01:37:11.684Z,744.71
2016-12-29T01:38:11.663Z,744.77
2016-12-29T01:39:11.645Z,744.61
2016-12-29T01:40:11.621Z,744.65
2016-12-29T01:41:11.599Z,744.79
2016-12-29T01:42:11.582Z,744.49
2016-12-29T01:43:11.561Z,744.65
2016-12-29T01:44:11.537Z,744.66
2016-12-29T01:45:11.519Z,744.55
2016-12-29T01:46:11.498Z,744.59
2016-12-29T01:47:11.474Z,744.58
2016-12-29T01:48:11.452Z,744.57
2016-12-29T01:49:11.431Z,744.48
2016-12-29T01:50:11.412Z,744.54
2016-12-29T01:51:11.392Z,744.62
2016-12-29T01:52:11.367Z,744.67
2016-12-29T01:53:11.346Z,744.38
2016-12-29T01:54:11.328Z,744.48
2016-12-29T01:55:11.307Z,744.49
2016-12-29T01:56:11.282Z,744.54
2016-12-29T01:57:11.265Z,744.46
2016-12-29T01:58:11.244Z,744.36
2016-12-29T01:59:11.222Z,744.49
2016-12-29T02:00:11.201Z,744.55
2016-12-29T02:01:11.177Z,744.24
2016-12-29T02:02:11.159Z,744.42
2016-12-29T02:03:11.134Z,744.46
2016-12-29T02:04:11.113Z,744.48
2016-12-29T02:05:11.092Z,744.45
2016-12-29T02:06:11.075Z,744.4
2016-12-29T02:07:11.049Z,744.42
2016-12-29T02:08:11.029Z,744.41
2016-12-29T02:09:11.008Z,744.37
2016-12-29T02:10:10.986Z,744.42
2016-12-29T02:11:10.969Z,744.42
2016-12-29T02:12:10.949Z,744.43
2016-12-29T02:13:10.928Z,744.42
2016-12-29T02:14:10.906Z,744.4
2016-12-29T02:15:10.886Z,744.42
2016-12-29T02:16:10.865Z,744.36
2016-12-29T02:17:10.856Z,744.36
2016-12-29T02:18:10.824Z,744.38
2016-12-29T02:19:10.799Z,744.17
2016-12-29T02:20:10.781Z,744.36
2016-12-29T02:21:10.756Z,744.48
2016-12-29T02:22:10.735Z,744.48
2016-12-29T02:23:10.715Z,744.36
2016-12-29T02:24:10.694Z,744.39
2016-12-29T02:25:10.672Z,744.49
2016-12-29T02:26:10.655Z,744.5
2016-12-29T02:27:10.631Z,744.33
2016-12-29T02:28:10.614Z,744.32
2016-12-29T02:29:10.590Z,744.38
2016-12-29T02:30:10.572Z,744.38
2016-12-29T02:31:10.548Z,744.39
2016-12-29T02:32:10.527Z,744.24
2016-12-29T02:33:10.509Z,744.29
2016-12-29T02:34:10.486Z,744.31
2016-12-29T02:35:10.468Z,744.39
2016-12-29T02:36:10.443Z,744.35
2016-12-29T02:37:10.426Z,744.37
2016-12-29T02:38:10.401Z,744.33
2016-12-29T02:39:10.383Z,744.39
2016-12-29T02:40:10.359Z,744.38
2016-12-29T02:41:10.338Z,744.47
2016-12-29T02:42:10.321Z,744.49
2016-12-29T02:43:10.296Z,744.31
2016-12-29T02:44:10.279Z,744.46
2016-12-29T02:45:10.258Z,744.47
2016-12-29T02:46:10.237Z,744.41
2016-12-29T02:47:10.216Z,744.42
2016-12-29T02:48:10.192Z,744.42
2016-12-29T02:49:10.171Z,744.32
2016-12-29T02:50:10.149Z,744.48
2016-12-29T02:51:10.132Z,744.44
2016-12-29T02:52:10.111Z,744.38
2016-12-29T02:53:10.090Z,744.55
2016-12-29T02:54:10.066Z,744.32
2016-12-29T02:55:10.045Z,744.47
2016-12-29T02:56:10.027Z,744.37
2016-12-29T02:57:10.006Z,744.27
2016-12-29T02:58:09.984Z,744.38
2016-12-29T02:59:09.964Z,744.34
2016-12-29T03:00:09.940Z,744.41
2016-12-29T03:01:09.918Z,744.51
2016-12-29T03:02:09.897Z,744.34
2016-12-29T03:03:09.877Z,744.33
2016-12-29T03:04:09.856Z,744.31
2016-12-29T03:05:09.837Z,744.33
2016-12-29T03:06:09.814Z,744.39
2016-12-29T03:07:09.793Z,744.41
2016-12-29T03:08:09.776Z,744.38
2016-12-29T03:09:09.756Z,744.34
2016-12-29T03:10:09.734Z,744.4
2016-12-29T03:11:09.710Z,744.34
2016-12-29T03:12:09.692Z,744.41
2016-12-29T03:13:09.671Z,744.45
2016-12-29T03:14:09.648Z,744.27
2016-12-29T03:15:09.628Z,744.39
2016-12-29T03:16:09.606Z,744.32
2016-12-29T03:17:09.588Z,744.32
2016-12-29T03:18:09.564Z,744.41
2016-12-29T03:19:09.548Z,744.34
2016-12-29T03:20:09.523Z,744.34
2016-12-29T03:21:09.503Z,744.42
2016-12-29T03:22:09.485Z,744.41
2016-12-29T03:23:09.461Z,744.45
2016-12-29T03:24:09.444Z,744.41
2016-12-29T03:25:09.423Z,744.42
2016-12-29T03:26:09.403Z,744.46
2016-12-29T03:27:09.379Z,744.43
2016-12-29T03:28:09.358Z,744.37
2016-12-29T03:29:09.341Z,744.39
2016-12-29T03:30:09.321Z,744.38
2016-12-29T03:31:09.299Z,744.38
2016-12-29T03:32:09.279Z,744.43
2016-12-29T03:33:09.260Z,744.51
2016-12-29T03:34:09.236Z,744.29
2016-12-29T03:35:09.219Z,744.31
2016-12-29T03:36:09.195Z,744.42
2016-12-29T03:37:09.175Z,744.39
2016-12-29T03:38:09.153Z,744.43
2016-12-29T03:39:09.136Z,744.32
2016-12-29T03:40:09.112Z,744.33
2016-12-29T03:41:09.095Z,744.38
2016-12-29T03:42:09.070Z,744.39
2016-12-29T03:43:09.053Z,744.43
2016-12-29T03:44:09.033Z,744.38
2016-12-29T03:45:09.008Z,744.46
2016-12-29T03:46:08.991Z,744.29
2016-12-29T03:47:08.970Z,744.15
2016-12-29T03:48:08.947Z,744.27
2016-12-29T03:49:08.928Z,744.33
2016-12-29T03:50:08.908Z,744.32
2016-12-29T03:51:08.884Z,744.35
2016-12-29T03:52:08.864Z,744.35
2016-12-29T03:53:08.842Z,744.29
2016-12-29T03:54:08.825Z,744.37
2016-12-29T03:55:08.804Z,744.33
2016-12-29T03:56:08.779Z,744.27
2016-12-29T03:57:08.762Z,744.3
2016-12-29T03:58:08.741Z,744.27
2016-12-29T03:59:08.718Z,744.27
2016-12-29T04:00:08.695Z,744.33
2016-12-29T04:01:08.675Z,744.33
2016-12-29T04:02:08.658Z,744.31
2016-12-29T04:03:08.637Z,744.3
2016-12-29T04:04:08.613Z,744.41
2016-12-29T04:05:08.593Z,744.36
2016-12-29T04:06:08.572Z,744.33
2016-12-29T04:07:08.554Z,744.29
2016-12-29T04:08:08.533Z,744.32
2016-12-29T04:09:08.512Z,744.33
2016-12-29T04:10:08.491Z,744.3
2016-12-29T04:11:08.470Z,744.36
2016-12-29T04:12:08.449Z,744.35
2016-12-29T04:13:08.428Z,744.32
2016-12-29T04:14:08.403Z,744.36
2016-12-29T04:15:08.388Z,744.33
2016-12-29T04:16:08.362Z,744.42
2016-12-29T04:17:08.341Z,744.35
2016-12-29T04:18:08.320Z,744.26
2016-12-29T04:19:08.302Z,744.28
2016-12-29T04:20:08.279Z,744.35
2016-12-29T04:21:08.261Z,744.31
2016-12-29T04:22:08.240Z,744.35
2016-12-29T04:23:08.216Z,744.41
2016-12-29T04:24:08.199Z,744.36
2016-12-29T04:25:08.177Z,744.35
2016-12-29T04:26:08.157Z,744.39
2016-12-29T04:27:08.136Z,744.32
2016-12-29T04:28:08.116Z,744.35
2016-12-29T04:29:08.092Z,744.26
2016-12-29T04:30:08.075Z,744.34
2016-12-29T04:31:08.051Z,744.37
2016-12-29T04:32:08.031Z,744.4
2016-12-29T04:33:08.013Z,744.36
2016-12-29T04:34:07.990Z,744.3
2016-12-29T04:35:07.972Z,744.23
2016-12-29T04:36:07.948Z,744.28
2016-12-29T04:37:07.931Z,744.34
2016-12-29T04:38:07.910Z,744.38
2016-12-29T04:39:07.887Z,744.29
2016-12-29T04:40:07.866Z,744.3
2016-12-29T04:41:07.846Z,744.22
2016-12-29T04:42:07.826Z,744.23
2016-12-29T04:43:07.805Z,744.26
2016-12-29T04:44:07.787Z,744.35
2016-12-29T04:45:07.764Z,744.27
2016-12-29T04:46:07.743Z,744.23
2016-12-29T04:47:07.725Z,744.27
2016-12-29T04:48:07.702Z,744.28
2016-12-29T04:49:07.685Z,744.29
2016-12-29T04:50:07.662Z,744.28
2016-12-29T04:51:07.644Z,744.23
2016-12-29T04:52:07.621Z,744.27
2016-12-29T04:53:07.600Z,744.25
2016-12-29T04:54:07.580Z,744.28
2016-12-29T04:55:07.562Z,744.32
2016-12-29T04:56:07.542Z,744.36
2016-12-29T04:57:07.519Z,744.37
2016-12-29T04:58:07.497Z,744.11
2016-12-29T04:59:07.477Z,744.16
2016-12-29T05:00:07.459Z,744.24
2016-12-29T05:01:07.435Z,744.33
2016-12-29T05:02:07.413Z,744.3
2016-12-29T05:03:07.396Z,744.37
2016-12-29T05:04:07.375Z,744.35
2016-12-29T05:05:07.352Z,744.27
2016-12-29T05:06:07.331Z,744.28
2016-12-29T05:07:07.310Z,744.32
2016-12-29T05:08:07.292Z,744.34
2016-12-29T05:09:07.271Z,744.36
2016-12-29T05:10:07.250Z,744.32
2016-12-29T05:11:07.230Z,744.29
2016-12-29T05:12:07.206Z,744.29
2016-12-29T05:13:07.184Z,744.31
2016-12-29T05:14:07.167Z,744.3
2016-12-29T05:15:07.146Z,744.35
2016-12-29T05:16:07.122Z,744.38
2016-12-29T05:17:07.100Z,744.38
2016-12-29T05:18:07.082Z,744.4
2016-12-29T05:19:07.062Z,744.31
2016-12-29T05:20:07.040Z,744.31
2016-12-29T05:21:07.016Z,744.31
2016-12-29T05:22:06.996Z,744.32
2016-12-29T05:23:06.978Z,744.32
2016-12-29T05:24:06.956Z,744.39
2016-12-29T05:25:06.936Z,744.33
2016-12-29T05:26:06.915Z,744.36
2016-12-29T05:27:06.895Z,744.33
2016-12-29T05:28:06.870Z,744.39
2016-12-29T05:29:06.852Z,744.3
2016-12-29T05:30:06.831Z,744.32
2016-12-29T05:31:06.807Z,744.26
2016-12-29T05:32:06.789Z,744.39
2016-12-29T05:33:06.765Z,744.31
2016-12-29T05:34:06.744Z,744.38
2016-12-29T05:35:06.725Z,744.33
2016-12-29T05:36:06.701Z,744.27
2016-12-29T05:37:06.681Z,744.31
2016-12-29T05:38:06.663Z,744.36
2016-12-29T05:39:06.639Z,744.33
2016-12-29T05:40:06.622Z,744.33
2016-12-29T05:41:06.598Z,744.33
2016-12-29T05:42:06.576Z,744.36
2016-12-29T05:43:06.556Z,744.34
2016-12-29T05:44:06.538Z,744.35
2016-12-29T05:45:06.513Z,744.36
2016-12-29T05:46:06.496Z,744.29
2016-12-29T05:47:06.473Z,744.33
2016-12-29T05:48:06.452Z,744.37
2016-12-29T05:49:06.434Z,744.26
2016-12-29T05:50:06.410Z,744.3
2016-12-29T05:51:06.393Z,744.24
2016-12-29T05:52:06.369Z,744.21
2016-12-29T05:53:06.347Z,744.22
2016-12-29T05:54:06.344Z,744.29
2016-12-29T05:55:06.309Z,744.36
2016-12-29T05:56:06.285Z,744.27
2016-12-29T05:57:06.267Z,744.3
2016-12-29T05:58:06.243Z,744.29
2016-12-29T05:59:06.222Z,744.28
2016-12-29T06:00:06.200Z,744.27
2016-12-29T06:01:06.180Z,744.27
2016-12-29T06:02:06.162Z,744.31
2016-12-29T06:03:06.140Z,744.29
2016-12-29T06:04:06.121Z,744.36
2016-12-29T06:05:06.096Z,744.38
2016-12-29T06:06:06.078Z,744.27
2016-12-29T06:07:06.055Z,744.34
2016-12-29T06:08:06.036Z,744.34
2016-12-29T06:09:06.013Z,744.28
2016-12-29T06:10:05.995Z,744.39
2016-12-29T06:11:05.973Z,744.38
2016-12-29T06:12:05.953Z,744.38
2016-12-29T06:13:05.932Z,744.35
2016-12-29T06:14:05.911Z,744.31
2016-12-29T06:15:05.890Z,744.37
2016-12-29T06:16:05.869Z,744.42
2016-12-29T06:17:05.849Z,744.41
2016-12-29T06:18:05.825Z,744.39
2016-12-29T06:19:05.807Z,744.42
2016-12-29T06:20:05.786Z,744.37
2016-12-29T06:21:05.763Z,744.38
2016-12-29T06:22:05.741Z,744.42
2016-12-29T06:23:05.724Z,744.46
2016-12-29T06:24:05.703Z,744.4
2016-12-29T06:25:05.678Z,744.36
2016-12-29T06:26:05.658Z,744.38
2016-12-29T06:27:05.640Z,744.39
2016-12-29T06:28:05.619Z,744.42
2016-12-29T06:29:05.596Z,744.42
2016-12-29T06:30:05.574Z,744.42
2016-12-29T06:31:05.553Z,744.39
2016-12-29T06:32:05.536Z,744.41
2016-12-29T06:33:05.511Z,744.37
2016-12-29T06:34:05.490Z,744.41
2016-12-29T06:35:05.489Z,744.36
2016-12-29T06:36:05.449Z,744.35
2016-12-29T06:37:05.431Z,744.41
2016-12-29T06:38:05.410Z,744.36
2016-12-29T06:39:05.389Z,744.43
2016-12-29T06:40:05.372Z,744.44
2016-12-29T06:41:05.347Z,744.41
2016-12-29T06:42:05.327Z,744.44
2016-12-29T06:43:05.303Z,744.45
2016-12-29T06:44:05.281Z,744.31
2016-12-29T06:45:05.264Z,744.4
2016-12-29T06:46:05.240Z,744.4
2016-12-29T06:47:05.223Z,744.37
2016-12-29T06:48:05.198Z,744.37
2016-12-29T06:49:05.180Z,744.32
2016-12-29T06:50:05.160Z,744.34
2016-12-29T06:51:05.136Z,744.37
2016-12-29T06:52:05.117Z,744.39
2016-12-29T06:53:05.097Z,744.4
2016-12-29T06:54:05.076Z,744.42
2016-12-29T06:55:05.051Z,744.43
2016-12-29T06:56:05.030Z,744.47
2016-12-29T06:57:05.012Z,744.41
2016-12-29T06:58:04.992Z,744.49
2016-12-29T06:59:04.970Z,744.5
2016-12-29T07:00:04.945Z,744.45
2016-12-29T07:01:04.928Z,744.45
2016-12-29T07:02:04.905Z,744.45
2016-12-29T07:03:04.885Z,744.44
2016-12-29T07:04:04.860Z,744.45
2016-12-29T07:05:04.844Z,744.43
2016-12-29T07:06:04.822Z,744.5
2016-12-29T07:07:04.798Z,744.49
2016-12-29T07:08:04.781Z,744.45
2016-12-29T07:09:04.760Z,744.45
2016-12-29T07:10:04.738Z,744.5
2016-12-29T07:11:04.717Z,744.45
2016-12-29T07:12:04.696Z,744.45
2016-12-29T07:13:04.675Z,744.48
2016-12-29T07:14:04.650Z,744.41
2016-12-29T07:15:04.630Z,744.47
2016-12-29T07:16:04.612Z,744.43
2016-12-29T07:17:04.587Z,744.47
2016-12-29T07:18:04.566Z,744.47
2016-12-29T07:19:04.548Z,744.51
2016-12-29T07:20:04.527Z,744.59
2016-12-29T07:21:04.502Z,744.55
2016-12-29T07:22:04.481Z,744.55
2016-12-29T07:23:04.463Z,744.55
2016-12-29T07:24:04.438Z,744.62
2016-12-29T07:25:04.417Z,744.59
2016-12-29T07:26:04.399Z,744.63
2016-12-29T07:27:04.379Z,744.6
2016-12-29T07:28:04.354Z,744.58
2016-12-29T07:29:04.333Z,744.58
2016-12-29T07:30:04.313Z,744.57
2016-12-29T07:32:04.271Z,744.56
2016-12-29T07:33:04.251Z,744.6
2016-12-29T07:34:04.230Z,744.64
2016-12-29T07:35:04.209Z,744.65
2016-12-29T07:36:04.192Z,744.62
2016-12-29T07:37:04.171Z,744.58
2016-12-29T07:38:04.151Z,744.6
2016-12-29T07:39:04.129Z,744.64
2016-12-29T07:40:04.106Z,744.64
2016-12-29T07:41:04.090Z,744.7
2016-12-29T07:42:04.066Z,744.72
2016-12-29T07:43:04.048Z,744.63
2016-12-29T07:44:04.025Z,744.66
2016-12-29T07:45:04.006Z,744.64
2016-12-29T07:46:03.985Z,744.6
2016-12-29T07:47:03.965Z,744.69
2016-12-29T07:48:03.951Z,744.71
2016-12-29T07:49:03.925Z,744.72
2016-12-29T07:50:03.908Z,744.76
2016-12-29T07:51:03.888Z,744.71
2016-12-29T07:52:03.868Z,744.68
2016-12-29T07:53:03.846Z,744.67
2016-12-29T07:54:03.829Z,744.76
2016-12-29T07:55:03.806Z,744.68
2016-12-29T07:56:03.790Z,744.69
2016-12-29T07:57:03.770Z,744.7
2016-12-29T07:58:03.953Z,744.76
2016-12-29T07:59:03.936Z,744.79
2016-12-29T08:00:03.710Z,744.74
2016-12-29T08:01:03.689Z,744.75
2016-12-29T08:02:03.673Z,744.74
2016-12-29T08:03:03.654Z,744.63
2016-12-29T08:04:03.636Z,744.65
2016-12-29T08:05:03.613Z,744.71
2016-12-29T08:06:03.594Z,744.7
2016-12-29T08:07:03.575Z,744.78
2016-12-29T08:08:03.556Z,744.69
2016-12-29T08:09:03.540Z,744.75
2016-12-29T08:10:03.522Z,744.74
2016-12-29T08:11:03.500Z,744.7
2016-12-29T08:12:03.480Z,744.75
2016-12-29T08:13:03.462Z,744.69
2016-12-29T08:14:03.444Z,744.8
2016-12-29T08:15:03.425Z,744.78
2016-12-29T08:16:03.408Z,744.83
2016-12-29T08:17:03.390Z,744.76
2016-12-29T08:18:03.368Z,744.81
2016-12-29T08:19:03.352Z,744.8
2016-12-29T08:20:03.331Z,744.8
2016-12-29T08:21:03.315Z,744.8
2016-12-29T08:22:03.294Z,744.79
2016-12-29T08:23:03.278Z,744.88
2016-12-29T08:24:03.260Z,744.93
2016-12-29T08:25:03.440Z,744.96
2016-12-29T08:26:03.223Z,744.92
2016-12-29T08:27:03.406Z,744.96
2016-12-29T08:28:03.183Z,744.98
2016-12-29T08:29:03.168Z,744.91
2016-12-29T08:30:03.149Z,744.92
2016-12-29T08:31:03.132Z,744.96
2016-12-29T08:32:03.111Z,744.97
2016-12-29T08:33:03.096Z,744.91
2016-12-29T08:34:03.075Z,744.94
2016-12-29T08:35:03.060Z,744.98
2016-12-29T08:36:03.043Z,744.97
2016-12-29T08:37:03.025Z,744.9
2016-12-29T08:38:03.007Z,744.94
2016-12-29T08:39:02.989Z,744.89
2016-12-29T08:40:02.972Z,745
2016-12-29T08:41:02.953Z,745
2016-12-29T08:42:02.935Z,744.97
2016-12-29T08:43:02.918Z,744.95
2016-12-29T08:44:02.901Z,744.94
2016-12-29T08:45:02.882Z,744.92
2016-12-29T08:46:02.865Z,744.95
2016-12-29T08:47:02.848Z,744.96
2016-12-29T08:48:02.830Z,744.85
2016-12-29T08:49:02.811Z,744.84
2016-12-29T08:50:02.794Z,744.97
2016-12-29T08:51:02.780Z,745.01
2016-12-29T08:52:02.766Z,745.05
2016-12-29T08:53:02.742Z,744.99
2016-12-29T08:55:02.708Z,745.04
2016-12-29T08:56:02.895Z,745.12
2016-12-29T08:57:02.674Z,745.12
2016-12-29T08:58:02.657Z,745.05
2016-12-29T08:59:02.640Z,745.07
2016-12-29T09:00:02.624Z,745.1
2016-12-29T09:01:02.611Z,745.06
2016-12-29T09:02:02.591Z,745.04
2016-12-29T09:03:02.574Z,745.1
2016-12-29T09:04:02.557Z,745.08
2016-12-29T09:05:02.545Z,745.14
2016-12-29T09:06:02.529Z,745.12
2016-12-29T09:07:02.508Z,745.18
2016-12-29T09:08:02.492Z,745.16
2016-12-29T09:09:02.476Z,745.16
2016-12-29T09:10:02.461Z,745.1
2016-12-29T09:11:02.445Z,745.03
2016-12-29T09:12:02.425Z,745.13
2016-12-29T09:13:02.409Z,745.15
2016-12-29T09:14:02.394Z,745.18
2016-12-29T09:15:02.375Z,745.12
2016-12-29T09:16:02.361Z,745.18
2016-12-29T09:17:02.345Z,745.26
2016-12-29T09:18:02.328Z,745.22
2016-12-29T09:19:02.308Z,745.13
2016-12-29T09:20:02.297Z,745.21
2016-12-29T09:21:02.275Z,745.17
2016-12-29T09:22:02.263Z,745.2
2016-12-29T09:23:02.247Z,745.15
2016-12-29T09:24:02.232Z,745.2
2016-12-29T09:25:02.212Z,745.18
2016-12-29T09:26:02.197Z,745.24
2016-12-29T09:27:02.181Z,745.16
2016-12-29T09:28:02.165Z,745.23
2016-12-29T09:29:02.149Z,745.16
2016-12-29T09:30:02.137Z,745.2
2016-12-29T09:31:02.118Z,745.24
2016-12-29T09:32:02.104Z,745.22
2016-12-29T09:33:02.089Z,745.21
2016-12-29T09:34:02.070Z,745.26
2016-12-29T09:35:02.058Z,745.28
2016-12-29T09:36:02.038Z,745.28
2016-12-29T09:37:02.025Z,745.23
2016-12-29T09:38:02.006Z,745.31
2016-12-29T09:39:01.990Z,745.31
2016-12-29T09:40:01.973Z,745.34
2016-12-29T09:41:01.958Z,745.24
2016-12-29T09:42:01.947Z,745.2
2016-12-29T09:43:01.925Z,745.2
2016-12-29T09:44:01.912Z,745.28
2016-12-29T09:45:01.893Z,745.36
2016-12-29T09:46:01.880Z,745.21
2016-12-29T09:47:01.860Z,745.18
2016-12-29T09:48:01.844Z,745.24
2016-12-29T09:49:01.828Z,745.26
2016-12-29T09:50:01.815Z,745.26
2016-12-29T09:51:01.799Z,745.22
2016-12-29T09:52:01.780Z,745.21
2016-12-29T09:53:01.764Z,745.2
2016-12-29T09:54:01.748Z,745.23
2016-12-29T09:55:01.733Z,745.25
2016-12-29T09:56:01.721Z,745.26
2016-12-29T09:57:01.702Z,745.25
2016-12-29T09:58:01.689Z,745.26
2016-12-29T09:59:01.671Z,745.25
2016-12-29T10:00:01.655Z,745.26
2016-12-29T10:01:01.640Z,745.3
2016-12-29T10:02:01.627Z,745.29
2016-12-29T10:03:01.611Z,745.27
2016-12-29T10:04:01.593Z,745.25
2016-12-29T10:05:01.577Z,745.28
2016-12-29T10:06:01.565Z,745.35
2016-12-29T10:07:01.550Z,745.3
2016-12-29T10:08:01.535Z,745.24
2016-12-29T10:09:01.516Z,745.29
2016-12-29T10:10:01.501Z,745.34
2016-12-29T10:11:01.491Z,745.31
2016-12-29T10:12:01.473Z,745.34
2016-12-29T10:13:01.458Z,745.45
2016-12-29T10:14:01.439Z,745.32
2016-12-29T10:15:01.428Z,745.27
2016-12-29T10:16:01.407Z,745.33
2016-12-29T10:17:01.392Z,745.37
2016-12-29T10:18:01.377Z,745.34
2016-12-29T10:19:01.361Z,745.35
2016-12-29T10:20:01.345Z,745.3
2016-12-29T10:21:01.329Z,745.33
2016-12-29T10:22:01.314Z,745.33
2016-12-29T10:23:01.299Z,745.35
2016-12-29T10:24:01.284Z,745.31
2016-12-29T10:25:01.268Z,745.33
2016-12-29T10:26:01.257Z,745.3
2016-12-29T10:27:01.237Z,745.27
2016-12-29T10:28:01.225Z,745.34
2016-12-29T10:29:01.210Z,745.34
2016-12-29T10:30:01.192Z,745.37
2016-12-29T10:31:01.180Z,745.3
2016-12-29T10:32:01.164Z,745.29
2016-12-29T10:33:01.147Z,745.23
2016-12-29T10:34:01.134Z,745.23
2016-12-29T10:35:01.116Z,745.25
2016-12-29T10:36:01.105Z,745.24
2016-12-29T10:37:01.087Z,745.31
2016-12-29T10:38:01.072Z,745.36
2016-12-29T10:39:01.060Z,745.24
2016-12-29T10:40:01.043Z,745.21
2016-12-29T10:41:01.029Z,745.26
2016-12-29T10:42:01.017Z,745.28
2016-12-29T10:43:01.002Z,745.33
2016-12-29T10:44:00.988Z,745.32
2016-12-29T10:45:00.970Z,745.31
2016-12-29T10:46:00.955Z,745.3
2016-12-29T10:47:00.944Z,745.3
2016-12-29T10:48:00.930Z,745.36
2016-12-29T10:49:00.914Z,745.35
2016-12-29T10:50:00.896Z,745.26
2016-12-29T10:51:00.886Z,745.23
2016-12-29T10:52:00.871Z,745.31
2016-12-29T10:53:00.852Z,745.33
2016-12-29T10:54:00.841Z,745.37
2016-12-29T10:55:00.827Z,745.35
2016-12-29T10:56:00.808Z,745.32
2016-12-29T10:57:00.793Z,745.28
2016-12-29T10:58:00.778Z,745.37
2016-12-29T10:59:00.767Z,745.36
2016-12-29T11:00:00.751Z,745.26
2016-12-29T11:01:00.736Z,745.29
2016-12-29T11:02:00.721Z,745.37
2016-12-29T11:03:00.703Z,745.37
2016-12-29T11:04:00.687Z,745.36
2016-12-29T11:05:00.672Z,745.31
2016-12-29T11:06:00.660Z,745.34
2016-12-29T11:07:00.641Z,745.33
2016-12-29T11:08:00.630Z,745.38
2016-12-29T11:09:00.612Z,745.35
2016-12-29T11:10:00.597Z,745.37
2016-12-29T11:11:00.581Z,745.29
2016-12-29T11:12:00.567Z,745.33
2016-12-29T11:13:00.555Z,745.3
2016-12-29T11:14:00.537Z,745.29
2016-12-29T11:15:00.522Z,745.32
2016-12-29T11:16:00.510Z,745.21
2016-12-29T11:17:00.492Z,745.29
2016-12-29T11:18:00.477Z,745.3
2016-12-29T11:19:00.465Z,745.26
2016-12-29T11:20:00.450Z,745.26
2016-12-29T11:21:00.435Z,745.27
2016-12-29T11:22:00.416Z,745.27
2016-12-29T11:23:00.405Z,745.24
2016-12-29T11:24:00.387Z,745.24
2016-12-29T11:25:00.376Z,745.23
2016-12-29T11:26:00.360Z,745.23
2016-12-29T11:27:00.342Z,745.25
2016-12-29T11:28:00.328Z,745.25
2016-12-29T11:29:00.312Z,745.17
2016-12-29T11:30:00.298Z,745.19
2016-12-29T11:31:00.287Z,745.22
2016-12-29T11:32:00.269Z,745.25
2016-12-29T11:33:00.254Z,745.24
2016-12-29T11:34:00.240Z,745.23
2016-12-29T11:35:00.230Z,745.23
2016-12-29T11:36:00.212Z,745.24
2016-12-29T11:37:00.201Z,745.24
2016-12-29T11:38:00.186Z,745.28
2016-12-29T11:39:00.172Z,745.26
2016-12-29T11:40:00.153Z,745.2
2016-12-29T11:41:00.139Z,745.2
2016-12-29T11:42:00.128Z,745.21
2016-12-29T11:43:00.111Z,745.25
2016-12-29T11:44:00.098Z,745.22
2016-12-29T11:45:00.084Z,745.27
2016-12-29T11:46:00.071Z,745.26
2016-12-29T11:47:00.054Z,745.24
2016-12-29T11:48:00.042Z,745.26
2016-12-29T11:49:00.025Z,745.3
2016-12-29T11:50:00.012Z,745.18
2016-12-29T11:51:00.000Z,745.21
2016-12-29T11:51:59.987Z,745.24
2016-12-29T11:52:59.973Z,745.25
2016-12-29T11:53:59.961Z,745.23
2016-12-29T11:54:59.943Z,745.15
2016-12-29T11:55:59.933Z,745.15
2016-12-29T11:56:59.919Z,745.16
2016-12-29T11:57:59.903Z,745.19
2016-12-29T11:58:59.889Z,745.19
2016-12-29T11:59:59.875Z,745.19
2016-12-29T12:00:59.861Z,745.09
2016-12-29T12:01:59.846Z,745.11
2016-12-29T12:02:59.836Z,745.11
2016-12-29T12:03:59.819Z,745.15
2016-12-29T12:04:59.808Z,745.15
2016-12-29T12:05:59.793Z,745.08
2016-12-29T12:06:59.779Z,745.11
2016-12-29T12:07:59.765Z,745.12
2016-12-29T12:08:59.747Z,745.12
2016-12-29T12:09:59.736Z,745.14
2016-12-29T12:10:59.721Z,745.11
2016-12-29T12:11:59.706Z,745.08
2016-12-29T12:12:59.691Z,745.09
2016-12-29T12:13:59.677Z,745.14
2016-12-29T12:14:59.659Z,745.06
2016-12-29T12:15:59.645Z,745.1
2016-12-29T12:16:59.633Z,745.07
2016-12-29T12:17:59.619Z,745.06
2016-12-29T12:18:59.601Z,745.14
2016-12-29T12:19:59.587Z,745.12
2016-12-29T12:20:59.574Z,745.09
2016-12-29T12:21:59.560Z,745.01
2016-12-29T12:22:59.545Z,745.02
2016-12-29T12:23:59.527Z,745.07
2016-12-29T12:24:59.515Z,745.15
2016-12-29T12:25:59.501Z,745.09
2016-12-29T12:26:59.486Z,745.1
2016-12-29T12:27:59.471Z,745.06
2016-12-29T12:28:59.456Z,745.09
2016-12-29T12:29:59.442Z,744.89
2016-12-29T12:30:59.426Z,745.03
2016-12-29T12:31:59.409Z,745.04